sensor_id;sensor_type;location;lat;lon;timestamp;pressure;altitude;pressure_sealevel;temperature;humidity
35647;BME280;28680;45.642;13.756;2023-03-03T00:00:54;101246.53;;;9.08;100.00
35647;BME280;28680;45.642;13.756;2023-03-03T00:03:26;101255.22;;;9.08;100.00
35647;BME280;28680;45.642;13.756;2023-03-03T00:06:03;101245.41;;;8.97;100.00
35647;BME280;28680;45.642;13.756;2023-03-03T00:12:28;101242.88;;;9.10;100.00
35647;BME280;28680;45.642;13.756;2023-03-03T00:14:57;101251.50;;;8.98;100.00
35647;BME280;28680;45.642;13.756;2023-03-03T00:17:42;101235.75;;;8.85;100.00
35647;BME280;28680;45.642;13.756;2023-03-03T00:26:45;101231.88;;;8.91;100.00
35647;BME280;28680;45.642;13.756;2023-03-03T00:29:40;101237.56;;;8.97;100.00
35647;BME280;28680;45.642;13.756;2023-03-03T00:32:46;101231.50;;;8.97;100.00
35647;BME280;28680;45.642;13.756;2023-03-03T00:35:40;101229.44;;;9.02;100.00
35647;BME280;28680;45.642;13.756;2023-03-03T00:38:17;101224.19;;;9.02;100.00
35647;BME280;28680;45.642;13.756;2023-03-03T00:40:45;101227.56;;;9.04;100.00
35647;BME280;28680;45.642;13.756;2023-03-03T00:43:21;101228.97;;;8.95;100.00
35647;BME280;28680;45.642;13.756;2023-03-03T00:45:53;101222.06;;;8.94;100.00
35647;BME280;28680;45.642;13.756;2023-03-03T00:48:42;101226.41;;;8.81;100.00
35647;BME280;28680;45.642;13.756;2023-03-03T00:53:53;101224.63;;;8.82;100.00
35647;BME280;28680;45.642;13.756;2023-03-03T00:56:19;101219.78;;;8.75;100.00
35647;BME280;28680;45.642;13.756;2023-03-03T00:58:45;101209.88;;;8.66;100.00
35647;BME280;28680;45.642;13.756;2023-03-03T01:01:14;101207.19;;;8.68;100.00
35647;BME280;28680;45.642;13.756;2023-03-03T01:03:39;101213.75;;;8.88;100.00
35647;BME280;28680;45.642;13.756;2023-03-03T01:06:06;101207.13;;;8.82;100.00
35647;BME280;28680;45.642;13.756;2023-03-03T01:08:32;101201.72;;;8.71;100.00
35647;BME280;28680;45.642;13.756;2023-03-03T01:11:07;101199.50;;;8.65;100.00
35647;BME280;28680;45.642;13.756;2023-03-03T01:13:35;101195.19;;;8.64;100.00
35647;BME280;28680;45.642;13.756;2023-03-03T01:16:02;101197.72;;;8.65;100.00
35647;BME280;28680;45.642;13.756;2023-03-03T01:18:29;101194.19;;;8.66;100.00
35647;BME280;28680;45.642;13.756;2023-03-03T01:20:55;101197.06;;;8.62;100.00
35647;BME280;28680;45.642;13.756;2023-03-03T01:23:21;101199.03;;;8.58;100.00
35647;BME280;28680;45.642;13.756;2023-03-03T01:25:47;101196.72;;;8.68;100.00
35647;BME280;28680;45.642;13.756;2023-03-03T01:28:13;101197.06;;;8.76;100.00
35647;BME280;28680;45.642;13.756;2023-03-03T01:30:39;101194.88;;;8.83;100.00
35647;BME280;28680;45.642;13.756;2023-03-03T01:33:05;101194.78;;;8.84;100.00
35647;BME280;28680;45.642;13.756;2023-03-03T01:35:31;101191.47;;;8.68;100.00
35647;BME280;28680;45.642;13.756;2023-03-03T01:37:57;101187.56;;;8.61;100.00
35647;BME280;28680;45.642;13.756;2023-03-03T01:40:28;101180.72;;;8.58;100.00
35647;BME280;28680;45.642;13.756;2023-03-03T01:42:54;101181.03;;;8.53;100.00
35647;BME280;28680;45.642;13.756;2023-03-03T01:45:26;101179.53;;;8.49;100.00
35647;BME280;28680;45.642;13.756;2023-03-03T01:48:22;101180.66;;;8.45;100.00
35647;BME280;28680;45.642;13.756;2023-03-03T01:51:26;101175.13;;;8.35;100.00
35647;BME280;28680;45.642;13.756;2023-03-03T01:54:04;101170.66;;;8.37;100.00
35647;BME280;28680;45.642;13.756;2023-03-03T01:56:31;101172.41;;;8.37;100.00
35647;BME280;28680;45.642;13.756;2023-03-03T01:59:10;101173.53;;;8.33;100.00
35647;BME280;28680;45.642;13.756;2023-03-03T02:01:40;101165.78;;;8.31;100.00
35647;BME280;28680;45.642;13.756;2023-03-03T02:04:07;101161.19;;;8.35;100.00
35647;BME280;28680;45.642;13.756;2023-03-03T02:06:39;101167.09;;;8.38;100.00
35647;BME280;28680;45.642;13.756;2023-03-03T02:12:18;101159.63;;;8.47;100.00
35647;BME280;28680;45.642;13.756;2023-03-03T02:14:45;101148.63;;;8.42;100.00
35647;BME280;28680;45.642;13.756;2023-03-03T02:17:11;101152.00;;;8.44;100.00
35647;BME280;28680;45.642;13.756;2023-03-03T02:20:25;101153.53;;;8.61;100.00
35647;BME280;28680;45.642;13.756;2023-03-03T02:23:12;101151.66;;;8.63;100.00
35647;BME280;28680;45.642;13.756;2023-03-03T02:25:43;101148.41;;;8.59;100.00
35647;BME280;28680;45.642;13.756;2023-03-03T02:28:13;101147.47;;;8.60;100.00
35647;BME280;28680;45.642;13.756;2023-03-03T02:30:39;101146.63;;;8.59;100.00
35647;BME280;28680;45.642;13.756;2023-03-03T02:33:06;101149.53;;;8.55;100.00
35647;BME280;28680;45.642;13.756;2023-03-03T02:35:38;101146.44;;;8.63;100.00
35647;BME280;28680;45.642;13.756;2023-03-03T02:46:20;101135.72;;;8.53;100.00
35647;BME280;28680;45.642;13.756;2023-03-03T02:48:46;101136.44;;;8.55;100.00
35647;BME280;28680;45.642;13.756;2023-03-03T02:51:11;101132.88;;;8.56;100.00
35647;BME280;28680;45.642;13.756;2023-03-03T02:53:37;101124.88;;;8.45;100.00
35647;BME280;28680;45.642;13.756;2023-03-03T02:56:04;101122.91;;;8.48;100.00
35647;BME280;28680;45.642;13.756;2023-03-03T02:58:30;101121.78;;;8.38;100.00
35647;BME280;28680;45.642;13.756;2023-03-03T03:00:56;101127.66;;;8.56;100.00
35647;BME280;28680;45.642;13.756;2023-03-03T03:03:22;101123.78;;;8.49;100.00
35647;BME280;28680;45.642;13.756;2023-03-03T03:05:47;101120.50;;;8.45;100.00
35647;BME280;28680;45.642;13.756;2023-03-03T03:08:13;101125.34;;;8.51;100.00
35647;BME280;28680;45.642;13.756;2023-03-03T03:10:39;101126.66;;;8.44;100.00
35647;BME280;28680;45.642;13.756;2023-03-03T03:13:05;101121.13;;;8.34;100.00
35647;BME280;28680;45.642;13.756;2023-03-03T03:15:31;101120.75;;;8.55;100.00
35647;BME280;28680;45.642;13.756;2023-03-03T03:17:57;101127.13;;;8.51;100.00
35647;BME280;28680;45.642;13.756;2023-03-03T03:20:23;101117.69;;;8.48;100.00
35647;BME280;28680;45.642;13.756;2023-03-03T03:22:48;101119.38;;;8.49;100.00
35647;BME280;28680;45.642;13.756;2023-03-03T03:25:14;101122.22;;;8.86;100.00
35647;BME280;28680;45.642;13.756;2023-03-03T03:27:40;101124.25;;;8.68;100.00
35647;BME280;28680;45.642;13.756;2023-03-03T03:30:07;101121.69;;;8.54;100.00
35647;BME280;28680;45.642;13.756;2023-03-03T03:32:33;101118.63;;;8.47;100.00
35647;BME280;28680;45.642;13.756;2023-03-03T03:34:59;101119.59;;;8.73;100.00
35647;BME280;28680;45.642;13.756;2023-03-03T03:37:24;101125.78;;;8.58;100.00
35647;BME280;28680;45.642;13.756;2023-03-03T03:39:50;101116.66;;;8.51;100.00
35647;BME280;28680;45.642;13.756;2023-03-03T03:42:16;101110.28;;;8.40;100.00
35647;BME280;28680;45.642;13.756;2023-03-03T03:44:42;101119.06;;;8.54;100.00
35647;BME280;28680;45.642;13.756;2023-03-03T03:47:08;101115.38;;;8.44;100.00
35647;BME280;28680;45.642;13.756;2023-03-03T03:49:34;101121.56;;;8.41;100.00
35647;BME280;28680;45.642;13.756;2023-03-03T03:52:00;101117.88;;;8.45;100.00
35647;BME280;28680;45.642;13.756;2023-03-03T03:54:26;101115.06;;;8.34;100.00
35647;BME280;28680;45.642;13.756;2023-03-03T03:56:52;101118.06;;;8.42;100.00
35647;BME280;28680;45.642;13.756;2023-03-03T03:59:19;101120.09;;;8.37;100.00
35647;BME280;28680;45.642;13.756;2023-03-03T04:01:45;101111.50;;;8.35;100.00
35647;BME280;28680;45.642;13.756;2023-03-03T04:04:13;101107.75;;;8.39;100.00
35647;BME280;28680;45.642;13.756;2023-03-03T04:06:38;101123.00;;;8.47;100.00
35647;BME280;28680;45.642;13.756;2023-03-03T04:09:04;101115.38;;;8.44;100.00
35647;BME280;28680;45.642;13.756;2023-03-03T04:11:30;101115.47;;;8.42;100.00
35647;BME280;28680;45.642;13.756;2023-03-03T04:13:56;101117.31;;;8.26;100.00
35647;BME280;28680;45.642;13.756;2023-03-03T04:16:22;101117.63;;;8.21;100.00
35647;BME280;28680;45.642;13.756;2023-03-03T04:18:51;101116.19;;;8.44;100.00
35647;BME280;28680;45.642;13.756;2023-03-03T04:21:17;101105.81;;;8.43;100.00
35647;BME280;28680;45.642;13.756;2023-03-03T04:23:43;101103.94;;;8.45;100.00
35647;BME280;28680;45.642;13.756;2023-03-03T04:26:09;101110.94;;;8.30;100.00
35647;BME280;28680;45.642;13.756;2023-03-03T04:28:35;101106.94;;;8.38;100.00
35647;BME280;28680;45.642;13.756;2023-03-03T04:31:01;101106.78;;;8.42;100.00
35647;BME280;28680;45.642;13.756;2023-03-03T04:33:27;101106.09;;;8.38;100.00
35647;BME280;28680;45.642;13.756;2023-03-03T04:35:53;101111.50;;;8.35;100.00
35647;BME280;28680;45.642;13.756;2023-03-03T04:38:20;101104.06;;;8.43;100.00
35647;BME280;28680;45.642;13.756;2023-03-03T04:40:46;101097.22;;;8.40;100.00
35647;BME280;28680;45.642;13.756;2023-03-03T04:43:12;101105.53;;;8.33;100.00
35647;BME280;28680;45.642;13.756;2023-03-03T04:45:37;101104.06;;;8.43;100.00
35647;BME280;28680;45.642;13.756;2023-03-03T04:48:04;101099.16;;;8.37;100.00
35647;BME280;28680;45.642;13.756;2023-03-03T04:50:30;101096.47;;;8.38;100.00
35647;BME280;28680;45.642;13.756;2023-03-03T04:52:56;101093.47;;;8.45;100.00
35647;BME280;28680;45.642;13.756;2023-03-03T04:55:22;101098.34;;;8.51;100.00
35647;BME280;28680;45.642;13.756;2023-03-03T04:57:47;101100.31;;;8.47;100.00
35647;BME280;28680;45.642;13.756;2023-03-03T05:00:22;101094.88;;;8.50;100.00
35647;BME280;28680;45.642;13.756;2023-03-03T05:03:01;101096.75;;;8.48;100.00
35647;BME280;28680;45.642;13.756;2023-03-03T05:05:41;101090.03;;;8.44;100.00
35647;BME280;28680;45.642;13.756;2023-03-03T05:08:07;101091.53;;;8.34;100.00
35647;BME280;28680;45.642;13.756;2023-03-03T05:10:33;101093.91;;;8.24;100.00
35647;BME280;28680;45.642;13.756;2023-03-03T05:12:59;101086.88;;;8.25;100.00
35647;BME280;28680;45.642;13.756;2023-03-03T05:15:25;101088.63;;;8.38;100.00
35647;BME280;28680;45.642;13.756;2023-03-03T05:17:50;101092.28;;;8.36;100.00
35647;BME280;28680;45.642;13.756;2023-03-03T05:23:30;101090.41;;;8.38;100.00
35647;BME280;28680;45.642;13.756;2023-03-03T05:26:26;101090.31;;;8.39;100.00
35647;BME280;28680;45.642;13.756;2023-03-03T05:28:51;101094.34;;;8.45;100.00
35647;BME280;28680;45.642;13.756;2023-03-03T05:31:17;101094.81;;;8.37;100.00
35647;BME280;28680;45.642;13.756;2023-03-03T05:33:53;101092.56;;;8.31;100.00
35647;BME280;28680;45.642;13.756;2023-03-03T05:36:54;101090.88;;;8.30;100.00
35647;BME280;28680;45.642;13.756;2023-03-03T05:39:19;101098.75;;;8.30;100.00
35647;BME280;28680;45.642;13.756;2023-03-03T05:41:54;101096.66;;;8.35;100.00
35647;BME280;28680;45.642;13.756;2023-03-03T05:48:41;101087.88;;;8.51;100.00
35647;BME280;28680;45.642;13.756;2023-03-03T05:51:06;101089.53;;;8.52;100.00
35647;BME280;28680;45.642;13.756;2023-03-03T05:53:32;101093.75;;;8.54;100.00
35647;BME280;28680;45.642;13.756;2023-03-03T05:55:58;101091.34;;;8.51;100.00
35647;BME280;28680;45.642;13.756;2023-03-03T05:58:24;101097.59;;;8.49;100.00
35647;BME280;28680;45.642;13.756;2023-03-03T06:00:50;101097.88;;;8.71;100.00
35647;BME280;28680;45.642;13.756;2023-03-03T06:03:16;101099.56;;;8.72;100.00
35647;BME280;28680;45.642;13.756;2023-03-03T06:05:42;101104.72;;;8.74;100.00
35647;BME280;28680;45.642;13.756;2023-03-03T06:08:08;101104.16;;;8.69;100.00
35647;BME280;28680;45.642;13.756;2023-03-03T06:10:34;101111.25;;;8.94;100.00
35647;BME280;28680;45.642;13.756;2023-03-03T06:13:00;101109.13;;;8.86;100.00
35647;BME280;28680;45.642;13.756;2023-03-03T06:15:26;101117.22;;;8.83;100.00
35647;BME280;28680;45.642;13.756;2023-03-03T06:17:52;101115.09;;;8.88;100.00
35647;BME280;28680;45.642;13.756;2023-03-03T06:20:18;101118.50;;;8.90;100.00
35647;BME280;28680;45.642;13.756;2023-03-03T06:22:47;101123.81;;;8.89;100.00
35647;BME280;28680;45.642;13.756;2023-03-03T06:25:13;101122.19;;;9.01;100.00
35647;BME280;28680;45.642;13.756;2023-03-03T06:27:39;101133.94;;;9.08;100.00
35647;BME280;28680;45.642;13.756;2023-03-03T06:30:06;101136.31;;;9.11;100.00
35647;BME280;28680;45.642;13.756;2023-03-03T06:32:32;101131.00;;;9.12;100.00
35647;BME280;28680;45.642;13.756;2023-03-03T06:34:58;101142.84;;;9.18;100.00
35647;BME280;28680;45.642;13.756;2023-03-03T06:37:23;101149.38;;;9.25;100.00
35647;BME280;28680;45.642;13.756;2023-03-03T06:39:49;101151.75;;;9.15;100.00
35647;BME280;28680;45.642;13.756;2023-03-03T06:42:18;101158.56;;;9.18;100.00
35647;BME280;28680;45.642;13.756;2023-03-03T06:45:08;101155.09;;;9.17;100.00
35647;BME280;28680;45.642;13.756;2023-03-03T06:47:34;101157.91;;;9.14;100.00
35647;BME280;28680;45.642;13.756;2023-03-03T06:50:00;101162.88;;;9.19;100.00
35647;BME280;28680;45.642;13.756;2023-03-03T06:52:28;101173.69;;;9.27;100.00
35647;BME280;28680;45.642;13.756;2023-03-03T06:54:58;101172.19;;;9.23;100.00
35647;BME280;28680;45.642;13.756;2023-03-03T06:57:29;101170.22;;;9.27;100.00
35647;BME280;28680;45.642;13.756;2023-03-03T07:00:24;101172.94;;;9.25;100.00
35647;BME280;28680;45.642;13.756;2023-03-03T07:03:06;101179.38;;;9.34;100.00
35647;BME280;28680;45.642;13.756;2023-03-03T07:05:32;101174.41;;;9.29;100.00
35647;BME280;28680;45.642;13.756;2023-03-03T07:07:59;101180.94;;;9.36;100.00
35647;BME280;28680;45.642;13.756;2023-03-03T07:10:29;101178.00;;;9.41;100.00
35647;BME280;28680;45.642;13.756;2023-03-03T07:13:04;101185.66;;;9.44;100.00
35647;BME280;28680;45.642;13.756;2023-03-03T07:15:37;101177.38;;;9.50;100.00
35647;BME280;28680;45.642;13.756;2023-03-03T07:18:46;101192.81;;;9.55;100.00
35647;BME280;28680;45.642;13.756;2023-03-03T07:21:36;101188.34;;;9.70;100.00
35647;BME280;28680;45.642;13.756;2023-03-03T07:24:28;101180.88;;;9.76;100.00
35647;BME280;28680;45.642;13.756;2023-03-03T07:27:27;101190.44;;;9.78;100.00
35647;BME280;28680;45.642;13.756;2023-03-03T07:30:08;101172.09;;;9.78;100.00
35647;BME280;28680;45.642;13.756;2023-03-03T07:32:45;101169.31;;;9.79;100.00
35647;BME280;28680;45.642;13.756;2023-03-03T07:36:03;101173.22;;;9.86;100.00
35647;BME280;28680;45.642;13.756;2023-03-03T07:40:57;101171.13;;;10.04;100.00
35647;BME280;28680;45.642;13.756;2023-03-03T07:46:43;101165.34;;;10.25;100.00
35647;BME280;28680;45.642;13.756;2023-03-03T07:49:36;101163.22;;;10.30;100.00
35647;BME280;28680;45.642;13.756;2023-03-03T07:52:30;101174.88;;;10.26;100.00
35647;BME280;28680;45.642;13.756;2023-03-03T08:03:18;101161.28;;;10.58;100.00
35647;BME280;28680;45.642;13.756;2023-03-03T08:05:48;101172.34;;;10.50;100.00
35647;BME280;28680;45.642;13.756;2023-03-03T08:08:34;101170.66;;;10.49;100.00
35647;BME280;28680;45.642;13.756;2023-03-03T08:11:02;101174.63;;;10.54;100.00
35647;BME280;28680;45.642;13.756;2023-03-03T08:13:37;101181.28;;;10.47;100.00
35647;BME280;28680;45.642;13.756;2023-03-03T08:18:47;101185.97;;;10.55;100.00
35647;BME280;28680;45.642;13.756;2023-03-03T08:21:26;101175.91;;;10.49;100.00
35647;BME280;28680;45.642;13.756;2023-03-03T08:24:00;101188.91;;;10.50;100.00
35647;BME280;28680;45.642;13.756;2023-03-03T08:26:44;101178.75;;;10.46;100.00
35647;BME280;28680;45.642;13.756;2023-03-03T08:29:37;101180.41;;;10.47;100.00
35647;BME280;28680;45.642;13.756;2023-03-03T08:35:39;101174.03;;;10.51;100.00
35647;BME280;28680;45.642;13.756;2023-03-03T08:38:06;101167.63;;;10.55;100.00
35647;BME280;28680;45.642;13.756;2023-03-03T08:40:34;101175.34;;;10.57;100.00
35647;BME280;28680;45.642;13.756;2023-03-03T08:43:00;101169.44;;;10.66;100.00
35647;BME280;28680;45.642;13.756;2023-03-03T08:45:27;101171.53;;;10.73;100.00
35647;BME280;28680;45.642;13.756;2023-03-03T08:47:53;101163.94;;;10.82;100.00
35647;BME280;28680;45.642;13.756;2023-03-03T08:50:19;101172.44;;;10.85;100.00
35647;BME280;28680;45.642;13.756;2023-03-03T08:52:45;101168.38;;;10.81;100.00
35647;BME280;28680;45.642;13.756;2023-03-03T08:55:11;101181.41;;;10.94;100.00
35647;BME280;28680;45.642;13.756;2023-03-03T08:57:37;101179.53;;;10.96;100.00
35647;BME280;28680;45.642;13.756;2023-03-03T09:00:13;101188.31;;;11.08;100.00
35647;BME280;28680;45.642;13.756;2023-03-03T09:02:42;101186.13;;;11.02;100.00
35647;BME280;28680;45.642;13.756;2023-03-03T09:05:09;101191.97;;;11.05;100.00
35647;BME280;28680;45.642;13.756;2023-03-03T09:07:35;101203.34;;;11.06;100.00
35647;BME280;28680;45.642;13.756;2023-03-03T09:10:01;101198.94;;;11.06;100.00
35647;BME280;28680;45.642;13.756;2023-03-03T09:12:39;101204.50;;;11.02;100.00
35647;BME280;28680;45.642;13.756;2023-03-03T09:15:23;101203.84;;;11.11;100.00
35647;BME280;28680;45.642;13.756;2023-03-03T09:20:55;101208.00;;;11.02;100.00
35647;BME280;28680;45.642;13.756;2023-03-03T09:23:56;101218.19;;;11.18;100.00
35647;BME280;28680;45.642;13.756;2023-03-03T09:27:17;101219.38;;;11.14;100.00
35647;BME280;28680;45.642;13.756;2023-03-03T09:32:50;101225.47;;;11.15;100.00
35647;BME280;28680;45.642;13.756;2023-03-03T09:35:36;101214.84;;;11.16;100.00
35647;BME280;28680;45.642;13.756;2023-03-03T09:38:30;101213.91;;;11.17;100.00
35647;BME280;28680;45.642;13.756;2023-03-03T09:56:17;101228.28;;;11.60;100.00
35647;BME280;28680;45.642;13.756;2023-03-03T09:59:35;101228.06;;;11.63;100.00
35647;BME280;28680;45.642;13.756;2023-03-03T10:05:28;101222.84;;;11.74;100.00
35647;BME280;28680;45.642;13.756;2023-03-03T10:17:53;101226.06;;;11.78;100.00
35647;BME280;28680;45.642;13.756;2023-03-03T10:20:43;101227.69;;;11.92;100.00
35647;BME280;28680;45.642;13.756;2023-03-03T10:37:31;101230.56;;;12.22;100.00
35647;BME280;28680;45.642;13.756;2023-03-03T10:40:39;101240.38;;;12.09;100.00
35647;BME280;28680;45.642;13.756;2023-03-03T10:50:29;101223.41;;;12.36;100.00
35647;BME280;28680;45.642;13.756;2023-03-03T10:55:56;101226.72;;;12.60;100.00
35647;BME280;28680;45.642;13.756;2023-03-03T11:08:06;101224.19;;;12.70;100.00
35647;BME280;28680;45.642;13.756;2023-03-03T11:11:07;101218.69;;;12.84;100.00
35647;BME280;28680;45.642;13.756;2023-03-03T11:16:33;101219.22;;;13.11;100.00
35647;BME280;28680;45.642;13.756;2023-03-03T11:19:47;101218.06;;;13.36;100.00
35647;BME280;28680;45.642;13.756;2023-03-03T11:31:44;101208.00;;;14.45;100.00
35647;BME280;28680;45.642;13.756;2023-03-03T11:40:15;101196.94;;;14.60;100.00
35647;BME280;28680;45.642;13.756;2023-03-03T11:45:59;101186.13;;;14.64;100.00
35647;BME280;28680;45.642;13.756;2023-03-03T11:48:51;101172.09;;;14.63;100.00
35647;BME280;28680;45.642;13.756;2023-03-03T11:54:09;101172.94;;;14.93;100.00
35647;BME280;28680;45.642;13.756;2023-03-03T11:56:41;101171.97;;;15.13;100.00
35647;BME280;28680;45.642;13.756;2023-03-03T12:02:44;101170.19;;;16.00;100.00
35647;BME280;28680;45.642;13.756;2023-03-03T12:19:48;101157.81;;;15.91;100.00
35647;BME280;28680;45.642;13.756;2023-03-03T12:26:07;101160.81;;;15.49;100.00
35647;BME280;28680;45.642;13.756;2023-03-03T12:28:49;101160.66;;;15.60;100.00
35647;BME280;28680;45.642;13.756;2023-03-03T12:36:35;101157.41;;;15.95;100.00
35647;BME280;28680;45.642;13.756;2023-03-03T12:39:35;101151.06;;;16.06;100.00
35647;BME280;28680;45.642;13.756;2023-03-03T12:42:19;101149.56;;;16.31;100.00
35647;BME280;28680;45.642;13.756;2023-03-03T12:48:01;101158.47;;;16.76;100.00
35647;BME280;28680;45.642;13.756;2023-03-03T12:56:31;101161.19;;;16.94;100.00
35647;BME280;28680;45.642;13.756;2023-03-03T12:59:32;101149.38;;;16.88;100.00
35647;BME280;28680;45.642;13.756;2023-03-03T13:06:06;101138.91;;;16.41;100.00
35647;BME280;28680;45.642;13.756;2023-03-03T13:17:27;101145.63;;;16.08;100.00
35647;BME280;28680;45.642;13.756;2023-03-03T13:22:49;101154.56;;;16.07;100.00
35647;BME280;28680;45.642;13.756;2023-03-03T13:25:37;101149.78;;;16.10;100.00
35647;BME280;28680;45.642;13.756;2023-03-03T13:30:49;101154.59;;;15.97;100.00
35647;BME280;28680;45.642;13.756;2023-03-03T13:33:29;101152.56;;;16.18;100.00
35647;BME280;28680;45.642;13.756;2023-03-03T13:36:12;101159.00;;;16.06;100.00
35647;BME280;28680;45.642;13.756;2023-03-03T13:38:49;101153.16;;;16.12;100.00
35647;BME280;28680;45.642;13.756;2023-03-03T13:41:23;101155.34;;;16.17;100.00
35647;BME280;28680;45.642;13.756;2023-03-03T13:44:24;101148.28;;;16.35;100.00
35647;BME280;28680;45.642;13.756;2023-03-03T13:47:29;101146.53;;;16.72;100.00
35647;BME280;28680;45.642;13.756;2023-03-03T13:50:21;101151.19;;;17.06;100.00
35647;BME280;28680;45.642;13.756;2023-03-03T14:16:37;101132.75;;;18.01;100.00
35647;BME280;28680;45.642;13.756;2023-03-03T14:19:24;101122.28;;;17.73;100.00
35647;BME280;28680;45.642;13.756;2023-03-03T14:24:22;101144.38;;;17.47;100.00
35647;BME280;28680;45.642;13.756;2023-03-03T14:26:57;101140.78;;;17.83;100.00
35647;BME280;28680;45.642;13.756;2023-03-03T14:32:00;101144.94;;;17.59;100.00
35647;BME280;28680;45.642;13.756;2023-03-03T14:34:40;101149.09;;;17.36;100.00
35647;BME280;28680;45.642;13.756;2023-03-03T14:37:26;101150.03;;;17.26;100.00
35647;BME280;28680;45.642;13.756;2023-03-03T14:40:19;101149.75;;;17.11;100.00
35647;BME280;28680;45.642;13.756;2023-03-03T14:42:54;101147.00;;;16.85;100.00
35647;BME280;28680;45.642;13.756;2023-03-03T14:45:39;101151.03;;;17.07;100.00
35647;BME280;28680;45.642;13.756;2023-03-03T14:48:27;101138.88;;;17.05;100.00
35647;BME280;28680;45.642;13.756;2023-03-03T14:54:00;101145.81;;;16.52;100.00
35647;BME280;28680;45.642;13.756;2023-03-03T14:56:36;101154.28;;;16.83;100.00
35647;BME280;28680;45.642;13.756;2023-03-03T14:59:24;101151.06;;;16.80;100.00
35647;BME280;28680;45.642;13.756;2023-03-03T15:02:30;101142.31;;;16.51;100.00
35647;BME280;28680;45.642;13.756;2023-03-03T15:05:23;101149.94;;;16.82;100.00
35647;BME280;28680;45.642;13.756;2023-03-03T15:08:09;101154.16;;;16.57;100.00
35647;BME280;28680;45.642;13.756;2023-03-03T15:10:43;101144.59;;;17.10;100.00
35647;BME280;28680;45.642;13.756;2023-03-03T15:16:22;101140.25;;;17.53;100.00
35647;BME280;28680;45.642;13.756;2023-03-03T15:21:30;101149.00;;;17.71;97.50
35647;BME280;28680;45.642;13.756;2023-03-03T15:24:37;101136.75;;;17.79;94.51
35647;BME280;28680;45.642;13.756;2023-03-03T15:27:34;101153.72;;;17.60;92.16
35647;BME280;28680;45.642;13.756;2023-03-03T15:30:35;101145.06;;;17.05;90.65
35647;BME280;28680;45.642;13.756;2023-03-03T16:01:41;101214.00;;;15.07;100.00
35647;BME280;28680;45.642;13.756;2023-03-03T16:04:21;101214.75;;;14.68;100.00
35647;BME280;28680;45.642;13.756;2023-03-03T16:07:08;101215.63;;;14.48;100.00
35647;BME280;28680;45.642;13.756;2023-03-03T16:29:51;101212.31;;;13.84;100.00
35647;BME280;28680;45.642;13.756;2023-03-03T16:53:42;101201.00;;;12.64;100.00
35647;BME280;28680;45.642;13.756;2023-03-03T16:56:31;101194.53;;;13.12;100.00
35647;BME280;28680;45.642;13.756;2023-03-03T16:59:34;101210.56;;;12.76;100.00
35647;BME280;28680;45.642;13.756;2023-03-03T17:02:40;101206.31;;;13.40;100.00
35647;BME280;28680;45.642;13.756;2023-03-03T17:14:11;101216.91;;;12.62;100.00
35647;BME280;28680;45.642;13.756;2023-03-03T17:17:00;101218.75;;;13.05;100.00
35647;BME280;28680;45.642;13.756;2023-03-03T17:22:42;101218.06;;;12.92;100.00
35647;BME280;28680;45.642;13.756;2023-03-03T17:25:34;101218.72;;;12.62;100.00
35647;BME280;28680;45.642;13.756;2023-03-03T17:28:24;101222.69;;;12.56;100.00
35647;BME280;28680;45.642;13.756;2023-03-03T17:31:08;101231.91;;;12.28;100.00
35647;BME280;28680;45.642;13.756;2023-03-03T17:33:55;101239.41;;;11.99;100.00
35647;BME280;28680;45.642;13.756;2023-03-03T17:39:46;101252.09;;;12.05;100.00
35647;BME280;28680;45.642;13.756;2023-03-03T17:42:29;101237.03;;;11.71;100.00
35647;BME280;28680;45.642;13.756;2023-03-03T17:45:12;101242.25;;;11.60;100.00
35647;BME280;28680;45.642;13.756;2023-03-03T17:48:04;101246.38;;;11.40;100.00
35647;BME280;28680;45.642;13.756;2023-03-03T17:54:04;101252.53;;;11.28;100.00
35647;BME280;28680;45.642;13.756;2023-03-03T18:22:56;101282.63;;;10.87;100.00
35647;BME280;28680;45.642;13.756;2023-03-03T18:25:59;101280.75;;;10.76;100.00
35647;BME280;28680;45.642;13.756;2023-03-03T18:28:51;101271.81;;;10.79;100.00
35647;BME280;28680;45.642;13.756;2023-03-03T18:31:26;101274.44;;;10.79;100.00
35647;BME280;28680;45.642;13.756;2023-03-03T18:38:54;101275.81;;;10.71;100.00
35647;BME280;28680;45.642;13.756;2023-03-03T18:44:29;101280.00;;;10.87;100.00
35647;BME280;28680;45.642;13.756;2023-03-03T18:46:56;101278.84;;;11.15;100.00
35647;BME280;28680;45.642;13.756;2023-03-03T18:50:00;101288.41;;;10.79;100.00
35647;BME280;28680;45.642;13.756;2023-03-03T18:52:32;101293.34;;;10.71;100.00
35647;BME280;28680;45.642;13.756;2023-03-03T18:57:36;101286.94;;;10.62;100.00
35647;BME280;28680;45.642;13.756;2023-03-03T19:02:58;101312.06;;;10.41;100.00
35647;BME280;28680;45.642;13.756;2023-03-03T19:05:36;101318.44;;;10.24;100.00
35647;BME280;28680;45.642;13.756;2023-03-03T19:11:53;101329.75;;;10.11;100.00
35647;BME280;28680;45.642;13.756;2023-03-03T19:14:30;101332.78;;;10.05;100.00
35647;BME280;28680;45.642;13.756;2023-03-03T19:20:09;101338.88;;;10.19;100.00
35647;BME280;28680;45.642;13.756;2023-03-03T19:22:47;101334.38;;;10.08;100.00
35647;BME280;28680;45.642;13.756;2023-03-03T19:25:24;101346.34;;;10.25;100.00
35647;BME280;28680;45.642;13.756;2023-03-03T19:30:56;101362.47;;;10.06;100.00